Time;durP1;ratioP1;P1;durP2;ratioP2;P2;SDS_P1;SDS_P2;PMS_P1;PMS_P2;Temp;Humidity;BMP_temperature;BMP_pressure;BME280_temperature;BME280_humidity;BME280_pressure;Samples;Min_cycle;Max_cycle;Signal;HPM_P1;HPM_P2
2022/11/22 00:00:48;;;;;;;6.60;3.40;;;5.60;1.00;;;;;;5057819;28;20903;-66
2022/11/22 00:03:15;;;;;;;5.90;3.30;;;5.60;1.00;;;;;;5052265;28;20487;-66
2022/11/22 00:05:44;;;;;;;10.43;3.10;;;5.60;1.00;;;;;;5038327;28;20470;-66
2022/11/22 00:08:15;;;;;;;8.23;3.43;;;5.60;92.00;;;;;;5038454;28;20908;-66
2022/11/22 00:10:42;;;;;;;5.73;3.43;;;5.60;64.20;;;;;;5038421;28;20467;-66
2022/11/22 00:13:15;;;;;;;5.77;3.30;;;5.60;1.00;;;;;;5039229;28;20472;-66
2022/11/22 00:15:43;;;;;;;7.60;3.80;;;5.60;99.90;;;;;;5038959;28;20497;-66
2022/11/22 00:18:10;;;;;;;8.63;3.33;;;5.60;1.00;;;;;;5038988;28;20463;-65
2022/11/22 00:20:42;;;;;;;11.47;3.33;;;5.60;1.00;;;;;;5058870;28;20472;-66
2022/11/22 00:23:11;;;;;;;4.50;3.80;;;5.50;99.90;;;;;;5058515;28;20481;-66
2022/11/22 00:25:39;;;;;;;12.23;4.17;;;5.50;1.00;;;;;;5056721;28;20460;-66
2022/11/22 00:28:09;;;;;;;5.00;3.20;;;5.50;99.90;;;;;;5054690;28;20477;-66
2022/11/22 00:30:36;;;;;;;8.73;3.50;;;5.60;28.60;;;;;;5044366;28;21058;-66
2022/11/22 00:33:03;;;;;;;4.60;2.97;;;5.60;99.90;;;;;;5055474;28;20473;-67
2022/11/22 00:35:31;;;;;;;10.63;3.90;;;5.50;99.90;;;;;;5057864;28;20577;-66
2022/11/22 00:38:00;;;;;;;5.90;3.70;;;5.50;17.90;;;;;;5059003;28;20514;-67
2022/11/22 00:40:29;;;;;;;5.57;3.80;;;5.50;99.90;;;;;;5056361;28;20458;-67
2022/11/22 00:42:56;;;;;;;4.97;2.97;;;5.60;99.90;;;;;;5039033;28;20904;-66
2022/11/22 00:45:23;;;;;;;10.40;3.33;;;5.60;99.90;;;;;;5038919;28;20534;-66
2022/11/22 00:47:51;;;;;;;5.27;3.30;;;5.60;1.00;;;;;;5038046;28;20825;-66
2022/11/22 00:50:18;;;;;;;7.23;3.93;;;5.60;99.90;;;;;;5037453;28;20456;-69
2022/11/22 00:52:45;;;;;;;4.80;3.67;;;5.50;99.90;;;;;;5052979;28;20437;-67
2022/11/22 00:55:12;;;;;;;6.67;3.57;;;5.60;1.00;;;;;;5057565;28;20464;-67
2022/11/22 00:57:41;;;;;;;7.73;3.60;;;5.60;1.00;;;;;;5056936;28;20463;-67
2022/11/22 01:00:10;;;;;;;6.23;3.53;;;5.60;1.00;;;;;;5057973;28;20470;-66
2022/11/22 01:02:37;;;;;;;5.00;3.53;;;5.60;1.00;;;;;;5046094;28;20471;-66
2022/11/22 01:05:05;;;;;;;5.57;3.90;;;5.60;1.00;;;;;;5038213;28;20466;-66
2022/11/22 01:07:32;;;;;;;6.43;4.10;;;5.70;26.30;;;;;;5038483;28;20799;-65
2022/11/22 01:10:04;;;;;;;4.40;4.00;;;5.70;99.90;;;;;;5037710;28;20909;-68
2022/11/22 01:12:32;;;;;;;7.90;4.63;;;5.70;99.90;;;;;;5043820;28;20539;-66
2022/11/22 01:15:01;;;;;;;8.20;3.93;;;5.70;99.90;;;;;;5058422;28;20494;-66
2022/11/22 01:17:28;;;;;;;4.60;3.80;;;5.70;99.90;;;;;;5057595;28;20925;-62
2022/11/22 01:19:55;;;;;;;7.27;4.20;;;5.80;99.90;;;;;;5057217;28;20441;-65
2022/11/22 01:22:24;;;;;;;13.57;4.80;;;5.70;99.90;;;;;;5055576;28;20462;-67
2022/11/22 01:24:53;;;;;;;7.33;4.90;;;5.80;99.90;;;;;;5038318;28;20458;-66
2022/11/22 01:27:21;;;;;;;8.67;4.10;;;5.80;99.90;;;;;;5037978;28;20470;-66
2022/11/22 01:29:48;;;;;;;5.43;4.63;;;5.80;99.90;;;;;;5037696;28;20458;-66
2022/11/22 01:32:16;;;;;;;8.47;4.43;;;5.80;99.90;;;;;;5037730;28;20449;-66
2022/11/22 01:34:44;;;;;;;5.40;4.40;;;5.80;99.90;;;;;;5054175;28;20437;-65
2022/11/22 01:37:11;;;;;;;7.00;4.23;;;5.80;99.90;;;;;;5056453;28;20505;-65
2022/11/22 01:39:43;;;;;;;5.80;4.20;;;5.80;99.90;;;;;;5057564;28;20553;-65
2022/11/22 01:42:11;;;;;;;8.27;4.93;;;5.80;99.90;;;;;;5057581;28;20557;-65
2022/11/22 01:44:41;;;;;;;10.70;4.20;;;5.80;99.90;;;;;;5043163;28;20463;-67
2022/11/22 01:47:13;;;;;;;6.60;4.00;;;5.80;99.90;;;;;;5037832;28;20878;-67
2022/11/22 01:49:46;;;;;;;9.37;4.33;;;5.80;99.90;;;;;;5055502;28;20465;-67
2022/11/22 01:52:16;;;;;;;5.07;3.70;;;5.80;99.90;;;;;;5057834;28;20901;-67
2022/11/22 01:54:50;;;;;;;5.20;3.80;;;5.70;99.90;;;;;;5046412;28;20544;-67
2022/11/22 01:57:23;;;;;;;6.67;3.70;;;5.80;99.90;;;;;;5037704;28;20486;-66
2022/11/22 01:59:56;;;;;;;5.20;4.47;;;5.80;99.90;;;;;;5037275;28;20506;-66
2022/11/22 02:02:24;;;;;;;8.83;4.30;;;5.80;99.90;;;;;;5036853;28;20467;-65
2022/11/22 02:04:57;;;;;;;7.67;4.50;;;5.80;99.90;;;;;;5043948;28;20557;-65
2022/11/22 02:07:28;;;;;;;4.10;3.60;;;5.80;99.90;;;;;;5056653;28;20505;-66
2022/11/22 02:09:57;;;;;;;6.87;3.93;;;5.70;99.90;;;;;;5054333;28;20566;-66
2022/11/22 02:12:28;;;;;;;5.57;4.00;;;5.70;99.90;;;;;;5057234;28;20760;-66
2022/11/22 02:14:56;;;;;;;8.07;4.17;;;5.70;99.90;;;;;;5053128;28;20834;-65
2022/11/22 02:17:27;;;;;;;6.33;4.23;;;5.70;99.90;;;;;;5036836;28;20441;-66
2022/11/22 02:19:59;;;;;;;4.50;3.40;;;5.70;99.90;;;;;;5036314;28;20922;-65
2022/11/22 02:22:35;;;;;;;9.03;4.80;;;5.80;99.90;;;;;;5036342;28;20469;-65
2022/11/22 02:25:08;;;;;;;6.70;4.17;;;5.80;99.90;;;;;;5037478;28;20448;-65
2022/11/22 02:27:41;;;;;;;5.70;4.37;;;5.80;99.90;;;;;;5055874;28;20454;-65
2022/11/22 02:30:10;;;;;;;6.60;4.20;;;5.80;99.90;;;;;;5056902;28;20461;-65
2022/11/22 02:32:37;;;;;;;6.33;4.17;;;5.90;99.90;;;;;;5057269;28;20482;-65
2022/11/22 02:35:17;;;;;;;7.07;4.43;;;5.90;99.90;;;;;;5057568;28;20458;-64
2022/11/22 02:37:46;;;;;;;7.67;4.00;;;5.90;99.90;;;;;;5038425;28;20467;-64
2022/11/22 02:40:16;;;;;;;6.50;4.70;;;5.90;99.90;;;;;;5041038;28;20854;-65
2022/11/22 02:42:50;;;;;;;8.90;4.17;;;6.00;99.90;;;;;;5056765;28;20453;-64
2022/11/22 02:45:17;;;;;;;6.50;3.93;;;6.00;99.90;;;;;;5057083;28;20462;-65
2022/11/22 02:47:45;;;;;;;7.63;3.97;;;6.00;99.90;;;;;;5041082;28;20907;-64
2022/11/22 02:50:12;;;;;;;8.60;4.60;;;6.00;99.90;;;;;;5054383;28;20472;-64
2022/11/22 02:52:39;;;;;;;6.93;3.37;;;6.00;99.90;;;;;;5054241;28;20742;-64
2022/11/22 02:55:09;;;;;;;9.70;4.50;;;6.00;99.90;;;;;;5056109;28;20467;-64
2022/11/22 02:57:36;;;;;;;8.87;4.20;;;6.00;99.90;;;;;;5045073;28;20471;-64
2022/11/22 03:00:06;;;;;;;4.73;3.03;;;6.00;99.90;;;;;;5036863;28;20448;-64
2022/11/22 03:02:35;;;;;;;9.03;3.80;;;6.10;99.90;;;;;;5037545;28;20466;-64
2022/11/22 03:05:02;;;;;;;5.00;3.10;;;6.10;99.90;;;;;;5042758;28;20455;-64
2022/11/22 03:07:29;;;;;;;7.23;3.50;;;6.10;99.90;;;;;;5055074;28;20473;-64
2022/11/22 03:09:57;;;;;;;5.07;3.40;;;6.20;99.90;;;;;;5055989;28;20447;-64
2022/11/22 03:12:24;;;;;;;7.80;3.53;;;6.10;99.90;;;;;;5054746;28;20770;-64
2022/11/22 03:14:51;;;;;;;6.17;3.00;;;6.20;99.90;;;;;;5055829;28;20519;-64
2022/11/22 03:17:21;;;;;;;9.57;3.20;;;6.20;99.90;;;;;;5055220;28;20473;-64
2022/11/22 03:19:48;;;;;;;5.63;3.40;;;6.20;99.90;;;;;;5036229;28;20466;-64
2022/11/22 03:22:18;;;;;;;6.10;3.70;;;6.30;99.90;;;;;;5037670;28;20451;-64
2022/11/22 03:24:45;;;;;;;7.67;3.57;;;6.30;99.90;;;;;;5036126;28;20468;-64
2022/11/22 03:27:13;;;;;;;4.90;3.07;;;6.30;99.90;;;;;;5036974;28;20477;-64
2022/11/22 03:29:40;;;;;;;10.60;3.97;;;6.30;99.90;;;;;;5051522;28;20550;-64
2022/11/22 03:32:12;;;;;;;5.00;3.23;;;6.20;99.90;;;;;;5058603;28;20879;-64
2022/11/22 03:34:42;;;;;;;5.77;3.33;;;6.20;99.90;;;;;;5040186;28;20900;-64
2022/11/22 03:37:12;;;;;;;4.73;3.00;;;6.20;99.90;;;;;;5039316;28;20579;-64
2022/11/22 03:39:39;;;;;;;6.13;2.50;;;6.10;99.90;;;;;;5039400;28;20831;-64
2022/11/22 03:42:06;;;;;;;5.57;3.10;;;6.10;99.90;;;;;;5040195;28;20887;-64
2022/11/22 03:44:36;;;;;;;9.20;3.07;;;6.10;99.90;;;;;;5039070;28;20835;-64
2022/11/22 03:47:03;;;;;;;4.30;2.47;;;6.00;99.90;;;;;;5039989;28;20470;-64
2022/11/22 03:49:30;;;;;;;6.10;3.10;;;6.00;99.90;;;;;;5046324;28;20462;-64
2022/11/22 03:51:59;;;;;;;5.60;3.17;;;6.00;99.90;;;;;;5058526;28;20778;-64
2022/11/22 03:54:26;;;;;;;12.00;3.40;;;5.90;99.90;;;;;;5059265;28;20468;-64
2022/11/22 03:56:53;;;;;;;6.40;2.90;;;5.90;99.90;;;;;;5059344;28;20547;-64
2022/11/22 03:59:20;;;;;;;6.97;3.03;;;5.80;99.90;;;;;;5057561;28;20474;-64
2022/11/22 04:01:47;;;;;;;9.47;2.77;;;5.80;99.90;;;;;;5039471;28;20455;-63
2022/11/22 04:04:15;;;;;;;5.70;3.43;;;5.80;99.90;;;;;;5044433;28;20580;-64
2022/11/22 04:06:42;;;;;;;6.00;3.43;;;5.80;99.90;;;;;;5058381;28;20808;-64
2022/11/22 04:09:11;;;;;;;7.40;3.07;;;5.80;99.90;;;;;;5059008;28;20890;-64
2022/11/22 04:11:38;;;;;;;6.40;2.37;;;5.70;99.90;;;;;;5040901;28;20521;-64
2022/11/22 04:16:51;;;;;;;4.23;2.83;;;5.70;99.90;;;;;;5037852;28;20487;-64
2022/11/22 04:19:18;;;;;;;7.20;3.00;;;5.70;99.90;;;;;;5038313;28;20839;-64
2022/11/22 04:21:44;;;;;;;8.23;3.00;;;5.70;99.90;;;;;;5038104;28;20927;-64
2022/11/22 04:27:03;;;;;;;12.70;3.07;;;5.70;99.90;;;;;;5000155;28;20468;-64
2022/11/22 04:29:30;;;;;;;6.73;2.50;;;5.60;99.90;;;;;;5038559;28;20902;-64
2022/11/22 04:34:44;;;;;;;10.10;3.00;;;5.60;99.90;;;;;;5038322;28;20891;-64
2022/11/22 04:37:12;;;;;;;7.90;3.13;;;5.60;99.90;;;;;;5055094;28;20548;-64
2022/11/22 04:39:45;;;;;;;7.60;2.70;;;5.60;99.90;;;;;;5056192;28;20470;-64
2022/11/22 04:44:59;;;;;;;6.90;3.60;;;5.50;99.90;;;;;;5058149;28;20426;-64
2022/11/22 04:52:54;;;;;;;11.40;4.20;;;5.40;99.90;;;;;;5024965;28;20487;-64
2022/11/22 04:55:23;;;;;;;6.50;3.43;;;5.30;99.90;;;;;;5059136;28;20436;-65
2022/11/22 04:57:50;;;;;;;9.00;4.30;;;5.30;99.90;;;;;;5044204;28;20498;-64
2022/11/22 05:00:18;;;;;;;12.23;7.43;;;5.40;99.90;;;;;;5038760;28;20759;-65
2022/11/22 05:02:48;;;;;;;14.60;4.90;;;5.30;99.90;;;;;;5038934;28;20491;-64
2022/11/22 05:05:16;;;;;;;10.53;4.03;;;5.30;99.90;;;;;;5038257;28;20937;-64
2022/11/22 05:07:46;;;;;;;8.17;3.60;;;5.30;99.90;;;;;;5046107;28;20537;-65
2022/11/22 05:10:13;;;;;;;9.47;3.13;;;5.30;99.90;;;;;;5056962;28;20426;-65
2022/11/22 05:12:42;;;;;;;7.93;3.50;;;5.30;99.90;;;;;;5057921;28;20777;-65
2022/11/22 05:15:11;;;;;;;9.83;3.57;;;5.20;99.90;;;;;;5058576;28;20822;-65
2022/11/22 05:17:42;;;;;;;10.27;3.93;;;5.10;99.90;;;;;;5052964;28;20461;-65
2022/11/22 05:20:13;;;;;;;15.83;4.13;;;5.10;99.90;;;;;;5038048;28;20459;-65
2022/11/22 05:25:28;;;;;;;13.27;3.47;;;5.10;99.90;;;;;;5058263;28;20512;-65
2022/11/22 05:27:56;;;;;;;12.03;3.93;;;5.10;99.90;;;;;;5057346;28;20458;-65
2022/11/22 05:30:24;;;;;;;13.57;4.20;;;5.00;99.90;;;;;;5058231;28;20433;-65
2022/11/22 05:32:51;;;;;;;7.87;3.50;;;5.00;99.90;;;;;;5058085;28;20559;-65
2022/11/22 05:35:19;;;;;;;6.10;3.50;;;5.00;99.90;;;;;;5040419;28;20517;-65
2022/11/22 05:37:46;;;;;;;6.30;3.80;;;4.90;99.90;;;;;;5037990;28;20494;-65
2022/11/22 05:40:16;;;;;;;11.87;4.50;;;4.90;99.90;;;;;;5037538;28;20463;-65
2022/11/22 05:42:43;;;;;;;7.70;3.73;;;4.90;99.90;;;;;;5038242;28;20470;-65
2022/11/22 05:45:17;;;;;;;8.47;3.70;;;4.80;99.90;;;;;;5049722;28;20558;-65
2022/11/22 05:47:44;;;;;;;11.80;4.40;;;4.80;99.90;;;;;;5055972;28;20805;-65
2022/11/22 05:50:13;;;;;;;11.27;3.80;;;4.80;99.90;;;;;;5038617;28;20467;-65
2022/11/22 05:52:41;;;;;;;7.53;4.30;;;4.80;99.90;;;;;;5036752;28;20437;-65
2022/11/22 05:55:09;;;;;;;21.60;9.30;;;4.90;99.90;;;;;;5044430;28;20467;-65
2022/11/22 05:57:37;;;;;;;12.73;6.57;;;4.90;99.90;;;;;;5055524;28;20953;-65
2022/11/22 06:00:06;;;;;;;9.73;4.10;;;4.90;99.90;;;;;;5056624;28;20910;-65
2022/11/22 06:02:36;;;;;;;11.43;5.33;;;4.80;99.90;;;;;;5056885;28;20462;-66
2022/11/22 06:05:04;;;;;;;19.33;10.27;;;4.80;99.90;;;;;;5052464;28;20444;-65
2022/11/22 06:07:33;;;;;;;20.53;7.13;;;4.70;99.90;;;;;;5043259;28;20553;-66
2022/11/22 06:10:00;;;;;;;25.87;9.57;;;4.70;99.90;;;;;;5056478;28;20616;-65
2022/11/22 06:12:28;;;;;;;13.50;5.73;;;4.70;99.90;;;;;;5056233;28;20462;-65
2022/11/22 06:14:55;;;;;;;15.73;6.93;;;4.70;99.90;;;;;;5060673;28;20453;-65
2022/11/22 06:17:28;;;;;;;23.20;7.97;;;4.70;99.90;;;;;;5062291;28;20464;-65
2022/11/22 06:19:57;;;;;;;18.83;7.67;;;4.70;99.90;;;;;;5064043;28;20453;-65
2022/11/22 06:22:25;;;;;;;15.37;7.60;;;4.70;99.90;;;;;;5062667;28;20450;-65
2022/11/22 06:24:52;;;;;;;16.33;7.17;;;4.70;99.90;;;;;;5057357;28;20469;-65
2022/11/22 06:27:19;;;;;;;20.43;8.90;;;4.70;99.90;;;;;;5056159;28;20755;-65
2022/11/22 06:29:46;;;;;;;22.60;10.47;;;4.60;99.90;;;;;;5053414;28;20466;-65
2022/11/22 06:32:14;;;;;;;26.90;14.40;;;4.60;99.90;;;;;;5054722;28;20462;-65
2022/11/22 06:34:46;;;;;;;27.33;12.80;;;4.60;99.90;;;;;;5054987;28;20508;-65
2022/11/22 06:37:16;;;;;;;19.00;10.80;;;4.60;99.90;;;;;;5054720;28;20490;-65
2022/11/22 06:39:43;;;;;;;27.30;11.73;;;4.60;99.90;;;;;;5055301;28;20561;-64
2022/11/22 06:42:12;;;;;;;13.33;7.13;;;4.50;99.90;;;;;;5040508;28;20439;-63
2022/11/22 06:44:41;;;;;;;18.60;8.00;;;4.60;99.90;;;;;;5064899;28;20857;-63
2022/11/22 06:47:09;;;;;;;14.60;6.47;;;4.60;99.90;;;;;;5062753;28;20458;-63
2022/11/22 06:49:38;;;;;;;23.93;10.10;;;4.70;99.90;;;;;;5059914;28;20541;-63
2022/11/22 06:52:06;;;;;;;29.57;12.67;;;4.70;99.90;;;;;;5064351;28;20464;-63
2022/11/22 06:54:34;;;;;;;22.27;10.43;;;4.70;99.90;;;;;;5063384;28;20472;-63
2022/11/22 06:57:02;;;;;;;35.67;17.10;;;4.70;99.90;;;;;;5061835;28;20482;-61
2022/11/22 06:59:29;;;;;;;37.97;14.87;;;4.60;99.90;;;;;;5063313;28;20477;-63
2022/11/22 07:01:56;;;;;;;17.60;8.77;;;4.70;99.90;;;;;;5059723;28;20461;-63
2022/11/22 07:04:23;;;;;;;25.97;9.97;;;4.60;99.90;;;;;;5064438;28;20484;-63
2022/11/22 07:06:51;;;;;;;32.20;12.50;;;4.70;99.90;;;;;;5064854;28;20462;-63
2022/11/22 07:09:21;;;;;;;20.70;7.40;;;4.60;99.90;;;;;;5067991;28;20958;-62
2022/11/22 07:11:50;;;;;;;16.73;9.37;;;4.70;99.90;;;;;;5070361;28;20828;-62
2022/11/22 07:14:17;;;;;;;14.67;6.87;;;4.60;99.90;;;;;;5067567;28;20454;-60
2022/11/22 07:16:45;;;;;;;14.63;6.20;;;4.60;99.90;;;;;;5065680;28;20489;-61
2022/11/22 07:19:12;;;;;;;8.57;4.40;;;4.60;99.90;;;;;;5068043;28;20433;-62
2022/11/22 07:21:39;;;;;;;7.93;4.77;;;4.60;99.90;;;;;;5062986;28;20459;-63
2022/11/22 07:24:13;;;;;;;12.23;5.37;;;4.70;99.90;;;;;;5066300;28;20465;-63
2022/11/22 07:26:41;;;;;;;13.33;4.73;;;4.70;1.00;;;;;;5067593;28;20894;-63
2022/11/22 07:29:10;;;;;;;8.80;3.37;;;4.70;1.00;;;;;;5069298;28;20449;-63
2022/11/22 07:31:40;;;;;;;8.83;4.60;;;4.70;99.90;;;;;;5068106;28;20454;-63
2022/11/22 07:34:07;;;;;;;10.43;4.13;;;4.70;99.90;;;;;;5067394;28;20453;-63
2022/11/22 07:36:37;;;;;;;10.57;3.80;;;4.70;99.90;;;;;;5062615;28;20458;-63
2022/11/22 07:39:04;;;;;;;10.43;3.40;;;4.80;99.90;;;;;;5066718;28;20522;-63
2022/11/22 07:41:34;;;;;;;12.43;3.73;;;4.80;1.00;;;;;;5068754;28;20460;-63
2022/11/22 07:44:01;;;;;;;11.80;3.67;;;4.90;1.00;;;;;;5065500;28;20485;-62
2022/11/22 07:46:31;;;;;;;15.63;4.23;;;4.90;99.90;;;;;;5064867;28;20466;-61
2022/11/22 07:49:00;;;;;;;11.43;4.03;;;5.00;1.00;;;;;;5057434;28;20569;-63
2022/11/22 07:51:28;;;;;;;9.37;4.63;;;5.10;1.00;;;;;;5059004;28;20441;-63
2022/11/22 07:53:56;;;;;;;13.63;3.83;;;5.20;99.90;;;;;;5043634;28;20521;-62
2022/11/22 07:56:24;;;;;;;13.17;3.90;;;5.30;99.90;;;;;;5038865;28;20468;-62
2022/11/22 07:58:53;;;;;;;13.17;4.00;;;5.30;9.70;;;;;;5039312;28;20562;-63
2022/11/22 08:01:22;;;;;;;6.80;3.30;;;5.40;99.90;;;;;;5038339;28;20434;-63
2022/11/22 08:03:50;;;;;;;7.03;3.00;;;5.50;99.90;;;;;;5046512;28;20577;-63
2022/11/22 08:06:20;;;;;;;9.03;3.30;;;5.50;4.10;;;;;;5057061;28;20464;-63
2022/11/22 08:08:59;;;;;;;7.77;3.07;;;5.50;1.00;;;;;;5056478;28;20465;-62
2022/11/22 08:11:26;;;;;;;10.03;3.57;;;5.50;99.90;;;;;;5058959;28;20946;-62
2022/11/22 08:13:53;;;;;;;13.00;3.27;;;5.60;99.90;;;;;;5051821;28;20459;-62
2022/11/22 08:16:20;;;;;;;6.43;2.77;;;5.70;99.90;;;;;;5044726;28;20441;-61
2022/11/22 08:18:52;;;;;;;7.33;3.00;;;5.70;1.00;;;;;;5037824;28;20494;-62
2022/11/22 08:21:19;;;;;;;17.43;4.20;;;5.70;1.00;;;;;;5062016;28;20433;-63
2022/11/22 08:23:47;;;;;;;9.50;3.13;;;5.70;1.00;;;;;;5072388;28;20799;-62
2022/11/22 08:26:16;;;;;;;10.53;3.40;;;5.70;1.00;;;;;;5057651;28;20458;-60
2022/11/22 08:28:46;;;;;;;12.27;4.20;;;5.90;1.00;;;;;;5060413;28;20459;-62
2022/11/22 08:31:18;;;;;;;8.60;2.93;;;6.10;1.00;;;;;;5066714;28;20449;-62
2022/11/22 08:33:46;;;;;;;18.00;3.47;;;6.40;99.90;;;;;;5066746;28;20852;-61
2022/11/22 08:36:15;;;;;;;10.07;3.57;;;6.50;99.90;;;;;;5064052;28;20553;-61
2022/11/22 08:38:42;;;;;;;12.33;3.67;;;6.70;99.90;;;;;;5064499;28;20545;-61
2022/11/22 08:41:12;;;;;;;9.30;2.80;;;6.80;99.90;;;;;;5066836;28;20457;-61
2022/11/22 08:43:44;;;;;;;11.00;2.83;;;6.90;99.90;;;;;;5069294;28;20555;-61
2022/11/22 08:46:11;;;;;;;8.80;3.50;;;7.10;99.90;;;;;;5064844;28;20988;-59
2022/11/22 08:48:41;;;;;;;7.57;2.80;;;7.10;38.60;;;;;;5063552;28;20437;-58
2022/11/22 08:51:10;;;;;;;11.93;3.00;;;7.20;49.60;;;;;;5061191;28;20459;-61
2022/11/22 08:53:41;;;;;;;7.43;2.87;;;7.30;1.00;;;;;;5056350;28;20807;-61
2022/11/22 08:56:14;;;;;;;28.73;4.20;;;7.40;1.50;;;;;;5054709;28;20462;-61
2022/11/22 08:58:42;;;;;;;5.67;2.47;;;7.40;1.00;;;;;;5056427;28;20544;-61
2022/11/22 09:01:13;;;;;;;5.90;2.90;;;7.50;1.00;;;;;;5054625;28;20469;-62
2022/11/22 09:03:40;;;;;;;10.33;2.80;;;7.40;1.00;;;;;;5055790;28;20493;-59
2022/11/22 09:06:10;;;;;;;9.87;4.23;;;7.60;1.00;;;;;;5050258;28;20455;-62
2022/11/22 09:08:39;;;;;;;24.07;8.87;;;7.60;1.00;;;;;;5037707;28;20462;-62
2022/11/22 09:11:08;;;;;;;24.90;11.53;;;7.70;1.00;;;;;;5037743;28;20466;-63
2022/11/22 09:13:36;;;;;;;20.40;9.97;;;7.70;1.00;;;;;;5038006;28;20750;-64
2022/11/22 09:16:05;;;;;;;10.20;4.70;;;7.80;1.00;;;;;;5037778;28;20463;-63
2022/11/22 09:18:35;;;;;;;11.10;3.47;;;7.90;1.00;;;;;;5056605;28;20483;-64
2022/11/22 09:21:04;;;;;;;12.20;3.10;;;8.00;1.00;;;;;;5058366;28;20915;-66
2022/11/22 09:23:32;;;;;;;9.37;3.10;;;8.00;1.00;;;;;;5058242;28;20805;-65
2022/11/22 09:26:03;;;;;;;8.90;2.80;;;8.00;1.00;;;;;;5058166;28;20439;-66
2022/11/22 09:28:31;;;;;;;6.23;2.90;;;8.10;1.00;;;;;;5040658;28;20741;-64
2022/11/22 09:31:03;;;;;;;12.33;4.60;;;8.00;1.00;;;;;;5039076;28;20755;-64
2022/11/22 09:33:34;;;;;;;9.87;3.10;;;8.10;1.00;;;;;;5057636;28;20481;-64
2022/11/22 09:36:02;;;;;;;6.70;2.83;;;7.90;1.00;;;;;;5058210;28;20466;-65
2022/11/22 09:38:30;;;;;;;7.23;2.70;;;8.10;1.00;;;;;;5043200;28;20518;-65
2022/11/22 09:40:59;;;;;;;5.20;2.90;;;8.10;1.00;;;;;;5036578;28;20565;-65
2022/11/22 09:43:41;;;;;;;10.63;4.13;;;8.10;1.00;;;;;;5036909;28;20457;-65
2022/11/22 09:46:19;;;;;;;9.53;3.20;;;8.30;1.00;;;;;;5036627;28;20462;-64
2022/11/22 09:49:05;;;;;;;8.00;2.77;;;8.30;1.00;;;;;;5048049;28;20871;-65
2022/11/22 09:51:41;;;;;;;6.30;2.80;;;8.50;1.00;;;;;;5057138;28;20505;-65
2022/11/22 09:54:12;;;;;;;8.43;2.47;;;8.60;1.00;;;;;;5057325;28;20466;-65
2022/11/22 09:56:42;;;;;;;9.43;2.97;;;8.80;1.00;;;;;;5057689;28;20470;-65
2022/11/22 09:59:15;;;;;;;9.67;3.10;;;8.90;1.00;;;;;;5045567;28;20462;-66
2022/11/22 10:01:49;;;;;;;4.83;2.40;;;8.80;1.00;;;;;;5037245;28;20469;-66
2022/11/22 10:04:22;;;;;;;5.00;2.40;;;8.70;1.00;;;;;;5036994;28;20804;-65
2022/11/22 10:06:54;;;;;;;7.03;2.67;;;8.60;1.00;;;;;;5038073;28;20458;-65
2022/11/22 10:09:31;;;;;;;5.57;2.90;;;8.50;1.00;;;;;;5046024;28;20870;-65
2022/11/22 10:12:03;;;;;;;8.17;2.40;;;8.00;1.00;;;;;;5057132;28;20802;-66
2022/11/22 10:14:44;;;;;;;6.20;3.37;;;7.90;1.00;;;;;;5057239;28;20987;-64
2022/11/22 10:17:25;;;;;;;8.93;2.67;;;8.00;1.00;;;;;;5057560;28;20465;-64
2022/11/22 10:20:01;;;;;;;6.33;2.60;;;7.90;1.00;;;;;;5047091;28;20920;-66
2022/11/22 10:22:31;;;;;;;6.13;2.87;;;7.80;1.00;;;;;;5037776;28;20821;-66
2022/11/22 10:25:00;;;;;;;9.63;3.53;;;7.70;1.00;;;;;;5037627;28;20919;-66
2022/11/22 10:27:31;;;;;;;14.87;7.37;;;7.70;1.00;;;;;;5037558;28;20474;-67
2022/11/22 10:30:05;;;;;;;8.03;4.83;;;7.60;1.00;;;;;;5043229;28;20459;-65
2022/11/22 10:32:39;;;;;;;11.50;4.67;;;7.60;1.00;;;;;;5069842;28;20461;-66
2022/11/22 10:35:23;;;;;;;9.90;4.53;;;7.50;1.00;;;;;;5062834;28;20465;-66
2022/11/22 10:37:59;;;;;;;8.93;4.20;;;7.50;1.00;;;;;;5057194;28;20485;-66
2022/11/22 10:40:48;;;;;;;9.70;5.07;;;7.40;1.00;;;;;;5058299;28;20458;-66
2022/11/22 10:43:30;;;;;;;10.10;5.20;;;7.50;1.00;;;;;;5068780;28;20458;-66
2022/11/22 10:46:12;;;;;;;8.63;3.00;;;7.50;1.00;;;;;;5055420;28;20463;-66
2022/11/22 10:48:44;;;;;;;7.23;3.63;;;7.60;1.00;;;;;;5061654;28;20446;-66
2022/11/22 10:51:20;;;;;;;8.53;3.60;;;7.70;1.00;;;;;;5064785;28;20519;-66
2022/11/22 10:54:01;;;;;;;5.13;2.10;;;7.90;1.00;;;;;;5065432;28;20427;-66
2022/11/22 10:56:33;;;;;;;7.70;2.67;;;8.00;1.00;;;;;;5066223;28;20903;-66
2022/11/22 10:59:25;;;;;;;7.23;3.53;;;8.00;1.00;;;;;;5064304;28;20478;-67
2022/11/22 11:02:03;;;;;;;6.10;3.10;;;7.90;1.00;;;;;;5064783;28;20893;-65
2022/11/22 11:04:35;;;;;;;6.30;2.73;;;7.60;1.00;;;;;;5037325;28;20862;-66
2022/11/22 11:07:04;;;;;;;9.00;2.70;;;7.70;1.00;;;;;;5036779;28;20467;-66
2022/11/22 11:09:38;;;;;;;5.00;2.80;;;7.70;1.00;;;;;;5037434;28;20512;-66
2022/11/22 11:12:13;;;;;;;5.37;2.83;;;7.60;1.00;;;;;;5053584;28;20612;-66
2022/11/22 11:14:44;;;;;;;4.03;2.40;;;7.80;1.00;;;;;;5077245;28;20464;-66
2022/11/22 11:17:16;;;;;;;5.13;2.70;;;8.00;1.00;;;;;;5058381;28;20729;-66
2022/11/22 11:19:47;;;;;;;7.50;2.53;;;8.00;1.00;;;;;;5052200;28;20515;-66
2022/11/22 11:22:20;;;;;;;4.83;2.13;;;7.90;1.00;;;;;;5056899;28;20498;-65
2022/11/22 11:24:48;;;;;;;5.10;2.43;;;7.90;1.00;;;;;;5062714;28;20919;-66
2022/11/22 11:27:18;;;;;;;3.17;2.03;;;7.80;1.00;;;;;;5063119;28;20787;-65
2022/11/22 11:29:47;;;;;;;4.13;1.80;;;8.00;1.00;;;;;;5063872;28;20878;-66
2022/11/22 11:32:37;;;;;;;4.33;2.40;;;8.30;1.00;;;;;;5065820;28;20454;-65
2022/11/22 11:35:07;;;;;;;6.30;2.10;;;8.50;1.00;;;;;;5058827;28;20529;-65
2022/11/22 11:37:36;;;;;;;6.33;2.53;;;8.90;1.00;;;;;;5061372;28;20436;-66
2022/11/22 11:40:28;;;;;;;5.13;2.17;;;9.20;1.00;;;;;;5064106;28;20428;-65
2022/11/22 11:43:19;;;;;;;6.30;2.70;;;9.10;1.00;;;;;;5061777;28;20875;-65
2022/11/22 11:45:46;;;;;;;8.43;2.37;;;9.30;1.00;;;;;;5064524;28;20894;-66
2022/11/22 11:48:42;;;;;;;5.60;2.17;;;9.30;1.00;;;;;;5063390;28;20457;-63
2022/11/22 11:51:18;;;;;;;6.57;2.00;;;9.70;1.00;;;;;;5039719;28;20466;-61
2022/11/22 11:54:00;;;;;;;4.40;2.17;;;9.70;1.00;;;;;;5064739;28;20542;-61
2022/11/22 11:56:33;;;;;;;5.20;2.20;;;9.90;1.00;;;;;;5065798;28;20469;-60
2022/11/22 11:59:16;;;;;;;5.07;2.50;;;9.90;1.00;;;;;;5066106;28;20952;-59
2022/11/22 12:01:58;;;;;;;3.90;2.70;;;9.70;1.00;;;;;;5066880;28;20850;-61
2022/11/22 12:04:30;;;;;;;6.50;2.43;;;10.00;1.00;;;;;;5066810;28;20490;-62
2022/11/22 12:07:02;;;;;;;4.53;1.90;;;10.30;1.00;;;;;;5067260;28;20902;-61
2022/11/22 12:09:48;;;;;;;4.13;2.20;;;10.00;1.00;;;;;;5068982;28;20552;-61
2022/11/22 12:12:46;;;;;;;3.77;2.30;;;9.60;1.00;;;;;;5065711;28;20485;-61
2022/11/22 12:15:19;;;;;;;6.03;2.30;;;9.60;1.00;;;;;;5067750;28;20475;-60
2022/11/22 12:17:54;;;;;;;3.70;2.17;;;9.30;1.00;;;;;;5066779;28;20493;-60
2022/11/22 12:20:27;;;;;;;2.37;1.70;;;9.30;1.00;;;;;;5066017;28;20461;-60
2022/11/22 12:23:05;;;;;;;3.73;2.00;;;9.00;1.00;;;;;;5064217;28;20752;-59
2022/11/22 12:25:36;;;;;;;3.50;1.70;;;8.80;1.00;;;;;;5064982;28;20616;-61
2022/11/22 12:28:18;;;;;;;6.23;2.20;;;8.30;1.00;;;;;;5067024;28;20926;-59
2022/11/22 12:30:52;;;;;;;4.40;2.23;;;8.30;1.00;;;;;;5062331;28;20464;-60
2022/11/22 12:33:26;;;;;;;4.03;2.20;;;8.40;1.00;;;;;;5064891;28;20641;-60
2022/11/22 12:35:56;;;;;;;4.57;2.97;;;8.30;1.00;;;;;;5065199;28;20460;-58
2022/11/22 12:38:28;;;;;;;5.63;2.07;;;8.50;1.00;;;;;;5063604;28;20836;-60
2022/11/22 12:41:00;;;;;;;4.80;2.00;;;8.50;1.00;;;;;;5067495;28;20462;-61
2022/11/22 12:43:30;;;;;;;5.13;1.93;;;8.50;1.00;;;;;;5065188;28;20460;-60
2022/11/22 12:46:06;;;;;;;6.60;3.30;;;8.50;1.00;;;;;;5056912;28;20463;-60
2022/11/22 12:48:38;;;;;;;5.60;2.23;;;8.60;1.00;;;;;;5053548;28;20548;-60
2022/11/22 12:51:15;;;;;;;4.30;1.77;;;8.30;1.00;;;;;;5070039;28;20890;-59
2022/11/22 12:53:44;;;;;;;10.00;5.67;;;8.30;1.00;;;;;;5058330;28;20488;-60
2022/11/22 12:56:23;;;;;;;5.27;2.03;;;8.40;1.00;;;;;;5058760;28;20960;-60
2022/11/22 12:58:59;;;;;;;7.40;4.00;;;8.40;1.00;;;;;;5058386;28;20560;-61
2022/11/22 13:01:33;;;;;;;7.00;3.87;;;8.30;1.00;;;;;;5057312;28;20791;-59
2022/11/22 13:04:08;;;;;;;4.97;3.10;;;8.30;1.00;;;;;;5037483;28;20493;-61
2022/11/22 13:06:48;;;;;;;5.10;3.30;;;8.10;1.00;;;;;;5039658;28;20463;-60
2022/11/22 13:09:19;;;;;;;8.10;3.37;;;8.10;1.00;;;;;;5038292;28;20466;-60
2022/11/22 13:11:57;;;;;;;4.80;3.10;;;8.30;1.00;;;;;;5038001;28;20433;-60
2022/11/22 13:14:31;;;;;;;5.80;3.33;;;8.40;1.00;;;;;;5056217;28;20520;-60
2022/11/22 13:16:59;;;;;;;3.80;2.80;;;8.40;1.00;;;;;;5052098;28;20750;-60
2022/11/22 13:19:30;;;;;;;5.27;2.80;;;8.40;1.00;;;;;;5048323;28;20494;-61
2022/11/22 13:22:12;;;;;;;5.10;2.60;;;8.40;1.00;;;;;;5058218;28;20468;-62
2022/11/22 13:24:52;;;;;;;4.60;2.80;;;8.30;1.00;;;;;;5062601;28;20465;-59
2022/11/22 13:27:25;;;;;;;4.60;3.50;;;8.40;1.00;;;;;;5058726;28;20479;-64
2022/11/22 13:29:59;;;;;;;5.40;3.53;;;8.40;1.00;;;;;;5048700;28;20926;-64
2022/11/22 13:32:30;;;;;;;5.40;2.70;;;8.30;1.00;;;;;;5037820;28;20463;-64
2022/11/22 13:35:18;;;;;;;5.03;2.10;;;8.30;1.00;;;;;;5037948;28;20498;-64